📊 Raw Sensor Data
Showing records 52776 to 52800 of 85,310 total
| ID | Distance (ft) | Battery V | Battery A | Int Temp (°F) | Int Humid (%) | Ext Temp (°F) | Solar V | RSSI | SNR | Time Stamp |
|---|---|---|---|---|---|---|---|---|---|---|
| 32547 | 12.7 | 3.74 | 0 | 66 | 36 | 61 | 5.10 | -78 | 8 | 02/16/2025 12:30 PM |
| 32546 | 12.7 | 3.74 | 0 | 65 | 37 | 60 | 5.10 | -78 | 6 | 02/16/2025 12:15 PM |
| 32545 | 12.7 | 3.74 | 0 | 66 | 35 | 61 | 5.10 | -77 | 8 | 02/16/2025 12:00 PM |
| 32544 | 12.7 | 3.73 | 0 | 64 | 36 | 60 | 5.10 | -77 | 7 | 02/16/2025 11:45 AM |
| 32543 | 12.7 | 3.74 | 0 | 65 | 35 | 59 | 5.10 | -77 | 8 | 02/16/2025 11:30 AM |
| 32542 | 12.8 | 3.74 | 0 | 64 | 35 | 60 | 5.10 | -79 | 8 | 02/16/2025 11:15 AM |
| 32541 | 12.8 | 3.74 | 0 | 63 | 34 | 60 | 5.10 | -79 | 7 | 02/16/2025 11:00 AM |
| 32540 | 12.8 | 3.75 | 0 | 62 | 34 | 57 | 5.10 | -80 | 7 | 02/16/2025 10:45 AM |
| 32539 | 12.7 | 3.78 | 0 | 58 | 35 | 57 | 5.10 | -80 | 8 | 02/16/2025 10:30 AM |
| 32538 | 12.7 | 3.97 | 0 | 56 | 35 | 52 | 5.10 | -80 | 8 | 02/16/2025 10:15 AM |
| 32537 | 12.6 | 3.75 | 0 | 54 | 35 | 53 | 5.10 | -80 | 7 | 02/16/2025 10:00 AM |
| 32536 | 12.6 | 3.83 | 0 | 52 | 35 | 52 | 5.10 | -80 | 6 | 02/16/2025 09:45 AM |
| 32535 | 12.6 | 3.75 | 0 | 52 | 35 | 51 | 5.10 | -80 | 7 | 02/16/2025 09:30 AM |
| 32534 | 12.7 | 3.75 | 0 | 51 | 35 | 53 | 5.10 | -81 | 7 | 02/16/2025 09:15 AM |
| 32533 | 12.6 | 3.74 | 0 | 47 | 37 | 50 | 5.10 | -82 | 7 | 02/16/2025 09:00 AM |
| 32532 | 12.6 | 3.77 | -5 | 46 | 37 | 46 | 4.50 | -84 | 8 | 02/16/2025 08:45 AM |
| 32531 | 12.6 | 3.89 | 25 | 46 | 36 | 46 | 4.50 | -88 | 8 | 02/16/2025 08:30 AM |
| 32530 | 12.6 | 3.89 | 9 | 45 | 36 | 46 | 4.50 | -83 | 8 | 02/16/2025 08:15 AM |
| 32529 | 12.6 | 3.88 | 9 | 45 | 36 | 46 | 4.50 | -86 | 8 | 02/16/2025 08:00 AM |
| 32528 | 12.6 | 3.94 | 0 | 44 | 36 | 46 | 4.50 | -86 | 8 | 02/16/2025 07:45 AM |
| 32527 | 12.6 | 3.75 | 12 | 43 | 37 | 45 | 4.60 | -86 | 8 | 02/16/2025 07:30 AM |
| 32526 | 12.6 | 3.79 | 0 | 43 | 37 | 44 | 4.60 | -86 | 7 | 02/16/2025 07:15 AM |
| 32525 | 12.6 | 3.73 | -7 | 43 | 37 | 44 | 4.10 | -87 | 7 | 02/16/2025 07:00 AM |
| 32524 | 12.5 | 3.79 | -5 | 42 | 37 | 44 | 1.40 | -86 | 8 | 02/16/2025 06:45 AM |
| 32523 | 12.6 | 3.57 | -5 | 42 | 37 | 43 | 0.00 | -86 | 8 | 02/16/2025 06:30 AM |